Main page
METAR-TAF:

METAR-TAF

Airports :

Oxford Airport

Oxford, England

latitude: 51-50-13N, longitude: 1-19-12W, elevation: 82 m

Current weather observation

The report was made 27 minutes ago, at 17:50 UTC
Wind 8 kt from the Southwest
Temperature 6°C
Humidity 93%
Pressure 1022 hPa
Visibility 10 km or more
Few clouds at a height of 2100 ft

METAR: EGTK 291750Z 23008KT 9999 FEW021 06/05 Q1022

Time: 18:17 (18:17 UTC)

Forecast

The report was made 1 hour and 18 minutes ago, at 16:59 UTC
Forecast valid from 29 at 18 UTC to 29 at 23 UTC
Wind 9 kt from the West/Southwest
Visibility 10 km or more
Few clouds at a height of 2000 ft
Probability 30% :
Temporary
from 29 at 19 UTC to 29 at 23 UTC
Visibility: 8000 m
Broken clouds at a height of 900 ft

TAF: EGTK 291659Z 2918/2923 24009KT 9999 FEW020 PROB30 TEMPO 2919/2923 8000 BKN009

Weather observations and forecasts of more than 4000 airports (METAR and TAF reports).

The available stations are represented by yellow and red dots on the map.

Hover mouse over dot to see the name of the station.

Then click to see weather observations and forecasts.

To change the map : click on the green buttons with a black cross to zoom in, on the green button with a dash to zoom out, or on the green arrows for adjacent maps.


METAR-TAF: